Time;durP1;ratioP1;P1;durP2;ratioP2;P2;SDS_P1;SDS_P2;PMS_P1;PMS_P2;Temp;Humidity;BMP_temperature;BMP_pressure;BME280_temperature;BME280_humidity;BME280_pressure;Samples;Min_cycle;Max_cycle;Signal;HPM_P1;HPM_P2
2023/01/20 00:01:42;;;;;;;5.55;2.20;;;-0.20;99.90;;;;;;5025476;28;20037;-80
2023/01/20 00:04:08;;;;;;;5.45;2.45;;;-0.20;99.90;;;;;;5049788;28;20132;-80
2023/01/20 00:06:34;;;;;;;7.63;2.42;;;-0.20;99.90;;;;;;5036135;28;20052;-80
2023/01/20 00:09:04;;;;;;;4.82;1.88;;;-0.20;99.90;;;;;;5045346;28;20461;-80
2023/01/20 00:11:30;;;;;;;6.78;2.03;;;-0.30;99.90;;;;;;5041726;28;20049;-80
2023/01/20 00:13:57;;;;;;;6.10;2.30;;;-0.30;99.90;;;;;;5046856;28;20037;-80
2023/01/20 00:16:24;;;;;;;7.10;2.50;;;-0.30;99.90;;;;;;5047084;28;20045;-80
2023/01/20 00:18:50;;;;;;;4.63;2.28;;;-0.30;99.90;;;;;;5051864;28;20041;-80
2023/01/20 00:21:16;;;;;;;6.50;2.60;;;-0.30;99.90;;;;;;5044837;28;20044;-80
2023/01/20 00:23:42;;;;;;;5.13;2.13;;;-0.30;99.90;;;;;;5045995;28;20037;-80
2023/01/20 00:26:15;;;;;;;6.57;2.30;;;-0.30;99.90;;;;;;5051921;28;20039;-80
2023/01/20 00:28:41;;;;;;;5.13;2.00;;;-0.30;99.90;;;;;;5051184;28;20076;-80
2023/01/20 00:31:34;;;;;;;3.90;1.92;;;-0.30;99.90;;;;;;5050294;28;20036;-80
2023/01/20 00:34:01;;;;;;;5.30;2.25;;;-0.40;99.90;;;;;;5043100;28;20080;-80
2023/01/20 00:36:30;;;;;;;6.22;2.15;;;-0.40;99.90;;;;;;5042028;28;20037;-80
2023/01/20 00:38:55;;;;;;;5.30;2.30;;;-0.30;99.90;;;;;;5054679;28;20041;-81
2023/01/20 00:41:21;;;;;;;6.57;2.13;;;-0.40;99.90;;;;;;5043216;28;20046;-80
2023/01/20 00:43:47;;;;;;;6.78;3.05;;;-0.40;99.90;;;;;;5046264;28;20049;-80
2023/01/20 00:46:14;;;;;;;6.18;2.67;;;-0.40;99.90;;;;;;5047096;28;20132;-81
2023/01/20 00:48:40;;;;;;;5.25;2.25;;;-0.40;99.90;;;;;;5045476;28;20041;-81
2023/01/20 00:51:07;;;;;;;6.78;2.38;;;-0.30;99.90;;;;;;5045017;28;20041;-80
2023/01/20 00:53:33;;;;;;;6.88;2.88;;;-0.40;99.90;;;;;;5045678;28;20061;-80
2023/01/20 00:55:58;;;;;;;11.35;2.97;;;-0.30;99.90;;;;;;5042834;28;20123;-80
2023/01/20 00:58:24;;;;;;;7.80;2.90;;;-0.30;99.90;;;;;;5049842;28;20075;-81
2023/01/20 01:00:51;;;;;;;7.40;2.95;;;-0.30;99.90;;;;;;5048547;28;20051;-80
2023/01/20 01:03:17;;;;;;;7.88;3.70;;;-0.30;99.90;;;;;;5049345;28;20127;-80
2023/01/20 01:05:44;;;;;;;8.20;3.58;;;0.00;99.90;;;;;;5042598;28;20029;-80
2023/01/20 01:08:10;;;;;;;7.63;2.97;;;-0.20;99.90;;;;;;5042737;28;20119;-81
2023/01/20 01:10:36;;;;;;;9.10;3.97;;;-0.10;99.90;;;;;;5038663;28;20115;-80
2023/01/20 01:13:03;;;;;;;9.15;4.47;;;0.00;99.90;;;;;;5036760;28;20033;-80
2023/01/20 01:15:28;;;;;;;10.65;3.72;;;0.00;99.90;;;;;;5049509;28;20064;-80
2023/01/20 01:17:55;;;;;;;9.38;4.20;;;0.00;99.90;;;;;;5045830;28;20512;-81
2023/01/20 01:20:21;;;;;;;9.27;4.80;;;0.10;99.90;;;;;;5047744;28;20037;-80
2023/01/20 01:22:47;;;;;;;10.55;4.43;;;0.10;99.90;;;;;;5044300;28;20092;-81
2023/01/20 01:25:12;;;;;;;11.90;5.15;;;0.10;99.90;;;;;;5045347;28;20042;-81
2023/01/20 01:27:38;;;;;;;14.85;5.40;;;0.20;99.90;;;;;;5048071;28;20733;-80
2023/01/20 01:30:04;;;;;;;13.77;6.20;;;0.20;99.90;;;;;;5048692;28;20044;-80
2023/01/20 01:32:30;;;;;;;12.85;6.28;;;0.20;99.90;;;;;;5049387;28;20044;-80
2023/01/20 01:34:56;;;;;;;15.82;6.78;;;0.20;99.90;;;;;;5041323;28;20390;-81
2023/01/20 01:37:21;;;;;;;12.00;6.03;;;0.30;99.90;;;;;;5039172;28;20041;-81
2023/01/20 01:39:47;;;;;;;16.67;7.88;;;0.30;99.90;;;;;;5064091;28;20419;-81
2023/01/20 01:42:16;;;;;;;16.65;8.05;;;0.30;99.90;;;;;;5043670;28;20036;-81
2023/01/20 01:45:10;;;;;;;14.65;7.40;;;0.40;99.90;;;;;;5047305;28;20064;-80
2023/01/20 01:47:46;;;;;;;13.27;7.13;;;0.40;99.90;;;;;;5043295;28;20084;-80
2023/01/20 01:50:20;;;;;;;16.35;7.25;;;0.40;99.90;;;;;;5045320;28;20449;-81
2023/01/20 01:52:49;;;;;;;14.75;7.22;;;0.40;99.90;;;;;;5048820;28;20603;-81
2023/01/20 01:55:18;;;;;;;15.77;7.85;;;0.40;99.90;;;;;;5032946;28;20037;-80
2023/01/20 01:57:44;;;;;;;15.05;7.38;;;0.40;99.90;;;;;;5043348;28;20059;-80
2023/01/20 02:00:11;;;;;;;14.50;7.45;;;0.50;99.90;;;;;;5044112;28;20037;-81
2023/01/20 02:02:37;;;;;;;16.05;8.43;;;0.50;99.90;;;;;;5046208;28;20150;-81
2023/01/20 02:05:03;;;;;;;18.48;8.23;;;0.50;99.90;;;;;;5030914;28;20029;-81
2023/01/20 02:07:32;;;;;;;15.85;7.82;;;0.50;99.90;;;;;;5030774;28;20047;-81
2023/01/20 02:09:59;;;;;;;16.33;8.65;;;0.50;99.90;;;;;;5038573;28;20072;-81
2023/01/20 02:12:24;;;;;;;18.25;9.07;;;0.50;99.90;;;;;;5032972;28;20480;-80
2023/01/20 02:14:54;;;;;;;16.13;8.88;;;0.50;99.90;;;;;;5046030;28;20051;-81
2023/01/20 02:17:52;;;;;;;20.55;9.90;;;0.50;99.90;;;;;;5043856;28;20163;-81
2023/01/20 02:20:36;;;;;;;19.40;9.43;;;0.50;99.90;;;;;;5005002;28;20064;-81
2023/01/20 02:23:13;;;;;;;20.40;9.50;;;0.50;99.90;;;;;;5049349;28;20067;-81
2023/01/20 02:25:57;;;;;;;16.02;8.13;;;0.60;99.90;;;;;;5039599;28;20041;-81
2023/01/20 02:28:50;;;;;;;18.52;9.00;;;0.60;99.90;;;;;;5046500;28;20128;-81
2023/01/20 02:31:16;;;;;;;20.95;9.15;;;0.60;99.90;;;;;;5047146;28;20503;-81
2023/01/20 02:33:59;;;;;;;15.18;7.78;;;0.60;99.90;;;;;;5030661;28;20052;-81
2023/01/20 02:36:33;;;;;;;17.58;9.32;;;0.60;99.90;;;;;;5057961;28;20045;-81
2023/01/20 02:39:10;;;;;;;15.05;8.07;;;0.60;99.90;;;;;;5015880;28;20042;-81
2023/01/20 02:41:58;;;;;;;18.67;8.52;;;0.60;99.90;;;;;;5038396;28;20045;-81
2023/01/20 02:44:50;;;;;;;16.45;8.93;;;0.70;99.90;;;;;;5047341;28;20076;-80
2023/01/20 02:47:54;;;;;;;15.18;8.85;;;0.70;99.90;;;;;;5030357;28;20068;-81
2023/01/20 02:50:41;;;;;;;13.85;8.27;;;0.70;99.90;;;;;;5004931;28;20138;-81
2023/01/20 02:53:10;;;;;;;16.33;8.38;;;0.70;99.90;;;;;;5044654;28;20124;-81
2023/01/20 02:55:48;;;;;;;17.25;8.60;;;0.70;99.90;;;;;;5038028;28;20087;-81
2023/01/20 02:58:30;;;;;;;15.30;8.65;;;0.70;99.90;;;;;;5042940;28;20040;-81
2023/01/20 03:01:03;;;;;;;16.00;9.32;;;0.70;99.90;;;;;;5046089;28;20068;-81
2023/01/20 03:03:34;;;;;;;16.00;9.03;;;0.70;99.90;;;;;;5038121;28;20049;-80
2023/01/20 03:06:04;;;;;;;19.42;9.50;;;0.70;99.90;;;;;;5043174;28;20037;-81
2023/01/20 03:08:31;;;;;;;17.67;9.20;;;0.80;99.90;;;;;;5034895;28;20058;-81
2023/01/20 03:11:02;;;;;;;15.25;8.80;;;0.80;99.90;;;;;;5046754;28;20052;-80
2023/01/20 03:13:41;;;;;;;18.27;9.55;;;0.70;99.90;;;;;;5046776;28;20041;-80
2023/01/20 03:16:10;;;;;;;18.42;10.07;;;0.80;99.90;;;;;;5039450;28;20059;-81
2023/01/20 03:18:37;;;;;;;19.15;10.38;;;0.70;99.90;;;;;;5041343;28;20112;-80
2023/01/20 03:21:05;;;;;;;20.40;11.23;;;0.70;99.90;;;;;;5042523;28;20071;-80
2023/01/20 03:23:34;;;;;;;16.13;8.88;;;0.70;99.90;;;;;;5042179;28;20504;-80
2023/01/20 03:26:05;;;;;;;17.42;10.38;;;0.70;99.90;;;;;;5047473;28;20288;-80
2023/01/20 03:28:31;;;;;;;16.83;9.63;;;0.70;99.90;;;;;;5033033;28;20080;-81
2023/01/20 03:30:58;;;;;;;18.15;10.00;;;0.60;99.90;;;;;;5038279;28;20095;-80
2023/01/20 03:33:24;;;;;;;18.70;9.60;;;0.60;99.90;;;;;;5048189;28;20041;-80
2023/01/20 03:35:51;;;;;;;16.92;10.55;;;0.60;99.90;;;;;;5046971;28;20106;-80
2023/01/20 03:38:17;;;;;;;20.23;11.32;;;0.60;99.90;;;;;;5039891;28;20033;-80
2023/01/20 03:41:26;;;;;;;23.40;11.40;;;0.50;99.90;;;;;;5048203;28;20037;-80
2023/01/20 03:44:11;;;;;;;19.63;11.15;;;0.70;99.90;;;;;;4910962;28;20149;-80
2023/01/20 03:47:04;;;;;;;20.48;11.13;;;0.60;99.90;;;;;;4946885;28;20117;-80
2023/01/20 03:49:40;;;;;;;21.77;11.20;;;0.50;99.90;;;;;;4967613;28;20057;-80
2023/01/20 03:52:26;;;;;;;19.77;11.02;;;0.50;99.90;;;;;;4966623;28;20117;-80
2023/01/20 03:55:17;;;;;;;21.05;11.65;;;0.50;99.90;;;;;;4964664;28;20074;-81
2023/01/20 03:57:53;;;;;;;21.73;12.45;;;0.60;99.90;;;;;;4961041;28;20035;-80
2023/01/20 04:00:21;;;;;;;21.02;11.60;;;0.60;99.90;;;;;;4931213;28;20458;-80
2023/01/20 04:02:49;;;;;;;26.92;13.48;;;0.60;99.90;;;;;;4948835;29;20264;-80
2023/01/20 04:05:15;;;;;;;23.92;11.73;;;0.50;99.90;;;;;;4939367;28;20047;-80
2023/01/20 04:07:43;;;;;;;25.65;12.50;;;0.60;99.90;;;;;;4967428;28;20057;-80
2023/01/20 04:10:13;;;;;;;25.42;11.63;;;0.50;99.90;;;;;;4962728;28;20060;-80
2023/01/20 04:12:39;;;;;;;22.90;12.45;;;0.50;99.90;;;;;;4967042;28;20047;-81
2023/01/20 04:15:06;;;;;;;23.83;11.68;;;0.50;99.90;;;;;;4966649;28;20786;-81
2023/01/20 04:17:32;;;;;;;26.27;12.73;;;0.50;99.90;;;;;;4951363;28;20078;-81
2023/01/20 04:20:03;;;;;;;25.88;10.68;;;0.50;99.90;;;;;;4987799;28;20478;-81
2023/01/20 04:22:49;;;;;;;24.23;12.40;;;0.60;99.90;;;;;;5045703;28;20095;-81
2023/01/20 04:25:25;;;;;;;26.08;12.13;;;0.50;99.90;;;;;;5044172;28;20045;-81
2023/01/20 04:27:51;;;;;;;25.25;12.00;;;0.50;99.90;;;;;;5030495;28;20067;-81
2023/01/20 04:30:17;;;;;;;28.10;11.77;;;0.50;99.90;;;;;;5043873;28;20484;-81
2023/01/20 04:32:42;;;;;;;24.45;12.73;;;0.50;99.90;;;;;;5042182;28;20516;-80
2023/01/20 04:35:18;;;;;;;22.30;10.80;;;0.50;99.90;;;;;;5049171;28;20079;-81
2023/01/20 04:37:44;;;;;;;26.50;12.27;;;0.50;99.90;;;;;;5049819;28;20094;-81
2023/01/20 04:40:11;;;;;;;24.70;11.93;;;0.50;99.90;;;;;;5049920;28;20040;-81
2023/01/20 04:42:37;;;;;;;23.88;10.98;;;0.50;99.90;;;;;;5042849;28;20480;-81
2023/01/20 04:45:04;;;;;;;24.88;11.65;;;0.60;99.90;;;;;;5040119;28;20038;-81
2023/01/20 04:47:30;;;;;;;27.05;12.55;;;0.60;99.90;;;;;;5041348;28;20479;-81
2023/01/20 04:49:56;;;;;;;23.88;12.52;;;0.60;99.90;;;;;;5041906;28;20032;-81
2023/01/20 04:52:22;;;;;;;24.17;11.35;;;0.60;99.90;;;;;;5043571;28;20083;-81
2023/01/20 04:54:47;;;;;;;24.35;11.48;;;0.60;99.90;;;;;;5051170;28;20059;-81
2023/01/20 04:57:13;;;;;;;25.38;11.60;;;0.60;99.90;;;;;;5048289;28;20045;-81
2023/01/20 04:59:40;;;;;;;25.67;11.48;;;0.60;99.90;;;;;;5044855;28;20056;-81
2023/01/20 05:02:05;;;;;;;25.85;11.38;;;0.60;99.90;;;;;;5046441;28;20041;-81
2023/01/20 05:04:31;;;;;;;22.27;9.98;;;0.60;99.90;;;;;;5047368;28;20400;-80
2023/01/20 05:06:56;;;;;;;22.95;10.90;;;0.60;99.90;;;;;;5048004;28;20053;-80
2023/01/20 05:09:22;;;;;;;22.60;11.55;;;0.60;99.90;;;;;;5056196;28;20117;-81
2023/01/20 05:11:48;;;;;;;23.60;10.60;;;0.60;99.90;;;;;;5039232;28;20102;-81
2023/01/20 05:14:13;;;;;;;26.13;12.15;;;0.60;99.90;;;;;;5037714;28;20048;-80
2023/01/20 05:16:39;;;;;;;30.02;10.75;;;0.60;99.90;;;;;;5045791;28;20049;-80
2023/01/20 05:19:05;;;;;;;23.02;11.45;;;0.60;99.90;;;;;;5042464;28;20056;-80
2023/01/20 05:21:30;;;;;;;23.73;11.43;;;0.60;99.90;;;;;;5039391;28;20077;-81
2023/01/20 05:23:56;;;;;;;24.40;10.70;;;0.70;99.90;;;;;;5043504;28;20169;-81
2023/01/20 05:26:23;;;;;;;22.55;10.68;;;0.60;99.90;;;;;;5046882;28;20087;-80
2023/01/20 05:28:48;;;;;;;23.10;10.85;;;0.60;99.90;;;;;;5043601;28;20029;-81
2023/01/20 05:31:15;;;;;;;21.50;10.88;;;0.60;99.90;;;;;;5045990;28;20172;-80
2023/01/20 05:33:40;;;;;;;22.70;10.30;;;0.90;99.90;;;;;;5041972;28;20033;-80
2023/01/20 05:36:06;;;;;;;22.85;10.90;;;0.60;99.90;;;;;;5047848;28;21779;-80
2023/01/20 05:38:32;;;;;;;23.05;10.88;;;0.60;99.90;;;;;;5047783;28;20025;-80
2023/01/20 05:40:59;;;;;;;22.02;10.77;;;0.60;99.90;;;;;;5048413;28;20485;-80
2023/01/20 05:43:25;;;;;;;22.15;10.55;;;0.60;99.90;;;;;;5048211;28;20526;-80
2023/01/20 05:45:51;;;;;;;26.10;11.43;;;0.60;99.90;;;;;;5036942;28;20124;-80
2023/01/20 05:48:16;;;;;;;21.92;10.50;;;0.90;99.90;;;;;;5036011;28;20033;-80
2023/01/20 05:50:42;;;;;;;24.65;11.43;;;0.60;99.90;;;;;;5047256;28;20063;-80
2023/01/20 05:53:07;;;;;;;26.10;10.50;;;0.60;99.90;;;;;;5042113;28;20397;-80
2023/01/20 05:55:33;;;;;;;22.42;11.05;;;0.60;99.90;;;;;;5027616;28;20045;-80
2023/01/20 05:58:03;;;;;;;26.80;11.30;;;0.60;99.90;;;;;;5049140;28;20037;-81
2023/01/20 06:00:29;;;;;;;22.67;10.73;;;0.60;99.90;;;;;;5046713;28;20052;-81
2023/01/20 06:02:55;;;;;;;27.42;13.52;;;0.60;99.90;;;;;;5044928;28;20094;-81
2023/01/20 06:05:20;;;;;;;25.67;12.60;;;0.60;99.90;;;;;;5030951;28;20423;-80
2023/01/20 06:07:48;;;;;;;25.38;12.55;;;0.60;99.90;;;;;;5047246;28;20078;-80
2023/01/20 06:10:14;;;;;;;26.55;12.18;;;0.60;99.90;;;;;;5040397;28;20037;-81
2023/01/20 06:12:40;;;;;;;21.73;11.30;;;0.60;99.90;;;;;;5025735;28;20041;-79
2023/01/20 06:15:07;;;;;;;28.00;12.40;;;0.60;99.90;;;;;;5046282;28;20025;-79
2023/01/20 06:17:33;;;;;;;25.15;13.00;;;0.60;99.90;;;;;;5042491;28;20074;-80
2023/01/20 06:19:59;;;;;;;25.00;11.13;;;0.60;99.90;;;;;;5046721;28;20036;-79
2023/01/20 06:22:25;;;;;;;23.13;11.63;;;0.60;99.90;;;;;;5042171;28;20500;-79
2023/01/20 06:24:51;;;;;;;24.40;11.57;;;0.60;99.90;;;;;;5045743;28;20049;-79
2023/01/20 06:27:18;;;;;;;24.15;12.30;;;0.60;99.90;;;;;;5043149;28;20047;-79
2023/01/20 06:29:43;;;;;;;25.38;13.20;;;0.60;99.90;;;;;;5040200;28;20123;-79
2023/01/20 06:32:09;;;;;;;25.50;13.18;;;0.60;99.90;;;;;;5039675;28;20760;-79
2023/01/20 06:34:35;;;;;;;27.17;13.73;;;0.60;99.90;;;;;;5037998;28;20045;-79
2023/01/20 06:37:01;;;;;;;24.38;11.77;;;0.60;99.90;;;;;;5040587;28;20594;-78
2023/01/20 06:39:26;;;;;;;25.33;11.68;;;0.60;99.90;;;;;;5046607;28;20494;-79
2023/01/20 06:41:55;;;;;;;23.13;11.50;;;0.60;99.90;;;;;;5041789;28;20035;-79
2023/01/20 06:44:21;;;;;;;35.70;16.42;;;0.60;99.90;;;;;;5047785;28;20163;-80
2023/01/20 06:46:46;;;;;;;33.50;16.42;;;0.60;99.90;;;;;;5044065;28;20131;-79
2023/01/20 06:49:12;;;;;;;28.63;13.10;;;0.60;99.90;;;;;;5036415;28;20029;-79
2023/01/20 06:51:38;;;;;;;24.67;12.98;;;0.60;99.90;;;;;;5048900;28;20045;-79
2023/01/20 06:54:03;;;;;;;24.25;12.60;;;0.60;99.90;;;;;;5046243;28;20037;-79
2023/01/20 06:56:29;;;;;;;25.95;13.55;;;0.60;99.90;;;;;;5040939;28;20048;-79
2023/01/20 06:58:54;;;;;;;29.40;13.38;;;0.50;99.90;;;;;;5032914;28;20366;-79
2023/01/20 07:01:26;;;;;;;28.60;13.90;;;0.60;99.90;;;;;;5042306;28;20045;-79
2023/01/20 07:03:52;;;;;;;28.50;14.40;;;0.60;99.90;;;;;;5047300;28;20037;-79
2023/01/20 07:06:26;;;;;;;26.05;12.52;;;0.60;99.90;;;;;;5038114;28;20758;-79
2023/01/20 07:08:52;;;;;;;30.70;14.40;;;1.40;99.90;;;;;;5046238;28;20069;-78
2023/01/20 07:11:18;;;;;;;28.00;13.40;;;0.60;99.90;;;;;;5048591;28;20037;-81
2023/01/20 07:13:44;;;;;;;27.55;13.38;;;0.60;99.90;;;;;;5046073;28;20056;-82
2023/01/20 07:16:10;;;;;;;30.38;15.10;;;0.60;99.90;;;;;;5041582;28;20041;-83
2023/01/20 07:18:36;;;;;;;29.63;14.57;;;0.70;99.90;;;;;;5041421;28;20125;-81
2023/01/20 07:21:02;;;;;;;31.90;16.63;;;0.70;99.90;;;;;;5059113;28;20069;-80
2023/01/20 07:23:30;;;;;;;29.83;14.10;;;0.70;99.90;;;;;;5045064;28;20080;-81
2023/01/20 07:26:01;;;;;;;28.67;14.38;;;0.70;99.90;;;;;;5042961;28;20082;-80
2023/01/20 07:28:27;;;;;;;32.00;16.40;;;0.70;99.90;;;;;;5025922;28;20067;-82
2023/01/20 07:30:53;;;;;;;32.22;16.70;;;0.70;99.90;;;;;;5050135;28;20048;-80
2023/01/20 07:33:19;;;;;;;33.75;17.20;;;0.70;99.90;;;;;;5033924;28;20048;-79
2023/01/20 07:35:49;;;;;;;32.95;17.38;;;0.70;99.90;;;;;;5047235;28;20384;-79
2023/01/20 07:38:14;;;;;;;27.10;13.57;;;0.70;99.90;;;;;;5050084;28;20052;-79
2023/01/20 07:40:40;;;;;;;30.63;14.18;;;0.70;99.90;;;;;;5048120;28;20025;-79
2023/01/20 07:43:06;;;;;;;29.65;14.55;;;-0.40;99.90;;;;;;5041010;28;20099;-79
2023/01/20 07:45:31;;;;;;;31.02;16.08;;;0.70;99.90;;;;;;5049858;28;20037;-79
2023/01/20 07:47:57;;;;;;;33.33;16.17;;;0.70;99.90;;;;;;5046135;28;20049;-79
2023/01/20 07:50:23;;;;;;;35.95;15.88;;;0.70;99.90;;;;;;5046520;28;20028;-79
2023/01/20 07:52:48;;;;;;;34.22;17.25;;;0.70;99.90;;;;;;5041244;28;20036;-79
2023/01/20 07:55:14;;;;;;;33.00;16.05;;;0.70;99.90;;;;;;5046156;28;20086;-80
2023/01/20 07:57:40;;;;;;;33.13;16.30;;;0.80;99.90;;;;;;5046094;28;20456;-79
2023/01/20 08:00:06;;;;;;;32.25;15.38;;;0.70;99.90;;;;;;5047300;28;20482;-80
2023/01/20 08:02:39;;;;;;;35.47;15.82;;;0.70;99.90;;;;;;5052250;28;20065;-79
2023/01/20 08:05:05;;;;;;;32.10;14.13;;;0.70;99.90;;;;;;5050356;28;20077;-78
2023/01/20 08:07:31;;;;;;;30.50;15.68;;;0.70;99.90;;;;;;5050639;28;20129;-79
2023/01/20 08:09:57;;;;;;;33.65;15.57;;;0.70;99.90;;;;;;5050316;28;20373;-79
2023/01/20 08:12:22;;;;;;;32.45;15.23;;;0.80;99.90;;;;;;5050546;28;20064;-79
2023/01/20 08:14:48;;;;;;;32.05;16.10;;;0.80;99.90;;;;;;5051853;28;20072;-79
2023/01/20 08:17:14;;;;;;;34.13;15.38;;;0.80;99.90;;;;;;5051127;28;20033;-79
2023/01/20 08:19:40;;;;;;;33.38;18.13;;;0.80;99.90;;;;;;5050253;28;20087;-80
2023/01/20 08:22:06;;;;;;;36.38;16.80;;;0.80;99.90;;;;;;5051357;28;20524;-81
2023/01/20 08:24:31;;;;;;;29.98;15.70;;;0.90;99.90;;;;;;5046888;28;20037;-81
2023/01/20 08:26:58;;;;;;;36.60;16.55;;;0.90;99.90;;;;;;5049645;28;20110;-79
2023/01/20 08:29:23;;;;;;;36.80;16.70;;;0.90;99.90;;;;;;5049675;28;20538;-78
2023/01/20 08:31:49;;;;;;;32.90;15.93;;;0.90;99.90;;;;;;5049523;28;20063;-78
2023/01/20 08:34:17;;;;;;;34.83;17.55;;;0.90;99.90;;;;;;5040000;28;20058;-78
2023/01/20 08:36:44;;;;;;;34.28;15.80;;;1.00;99.90;;;;;;5043149;28;20045;-78
2023/01/20 08:39:14;;;;;;;31.42;15.25;;;1.00;99.90;;;;;;5041178;28;20037;-77
2023/01/20 08:41:42;;;;;;;33.47;16.92;;;1.00;99.90;;;;;;5043013;28;20575;-78
2023/01/20 08:44:08;;;;;;;34.72;17.38;;;1.00;99.90;;;;;;5046256;28;20128;-78
2023/01/20 08:46:36;;;;;;;37.40;17.00;;;1.10;99.90;;;;;;5048077;28;20355;-78
2023/01/20 08:49:06;;;;;;;34.45;16.10;;;1.10;99.90;;;;;;5048287;28;20041;-78
2023/01/20 08:51:32;;;;;;;39.97;17.58;;;1.10;99.90;;;;;;5041772;28;20038;-78
2023/01/20 08:53:59;;;;;;;32.58;16.73;;;1.10;99.90;;;;;;5042414;28;20185;-78
2023/01/20 08:56:25;;;;;;;34.58;16.92;;;1.10;99.90;;;;;;5048021;28;20037;-78
2023/01/20 08:58:52;;;;;;;29.70;15.32;;;1.10;99.90;;;;;;5048533;28;20037;-78
2023/01/20 09:01:21;;;;;;;31.77;16.73;;;1.10;99.90;;;;;;5045135;28;20048;-78
2023/01/20 09:03:47;;;;;;;33.78;15.68;;;1.20;99.90;;;;;;5044265;28;20128;-78
2023/01/20 09:06:13;;;;;;;37.67;16.30;;;1.20;99.90;;;;;;5049674;28;20111;-78
2023/01/20 09:08:39;;;;;;;38.50;17.77;;;1.20;99.90;;;;;;5040833;28;20041;-78
2023/01/20 09:11:06;;;;;;;35.67;15.40;;;1.20;99.90;;;;;;5048651;28;20095;-78
2023/01/20 09:13:32;;;;;;;35.60;16.17;;;1.20;99.90;;;;;;5045861;28;20116;-78
2023/01/20 09:15:57;;;;;;;31.08;16.05;;;1.20;99.90;;;;;;5050033;28;20128;-78
2023/01/20 09:18:23;;;;;;;35.10;16.10;;;1.20;99.90;;;;;;5039507;28;20048;-77
2023/01/20 09:20:48;;;;;;;33.83;16.08;;;1.20;99.90;;;;;;5044866;28;20040;-77
2023/01/20 09:23:14;;;;;;;40.15;17.42;;;1.20;99.90;;;;;;5041948;28;20068;-77
2023/01/20 09:25:40;;;;;;;41.15;17.83;;;1.20;99.90;;;;;;5042956;28;20498;-77
2023/01/20 09:28:05;;;;;;;38.88;17.20;;;1.20;99.90;;;;;;5042740;28;20032;-77
2023/01/20 09:30:31;;;;;;;40.22;18.50;;;1.30;99.90;;;;;;5037840;28;20040;-77
2023/01/20 09:32:56;;;;;;;37.88;15.40;;;1.30;99.90;;;;;;5046911;28;20037;-78
2023/01/20 09:35:22;;;;;;;34.45;15.95;;;1.30;99.90;;;;;;5045374;28;20053;-78
2023/01/20 09:44:13;;;;;;;32.95;15.45;;;1.30;99.90;;;;;;5030131;28;20045;-79
2023/01/20 09:55:28;;;;;;;39.03;17.33;;;1.40;99.90;;;;;;5044670;28;20483;-79
2023/01/20 09:58:04;;;;;;;36.50;17.08;;;1.50;99.90;;;;;;5037923;28;20503;-79
2023/01/20 10:00:35;;;;;;;39.50;15.77;;;1.50;99.90;;;;;;5047814;28;20082;-78
2023/01/20 10:03:12;;;;;;;36.75;16.75;;;1.50;99.90;;;;;;5040050;28;20040;-79
2023/01/20 10:05:39;;;;;;;39.75;16.90;;;1.40;99.90;;;;;;5045888;28;20098;-79
2023/01/20 10:08:12;;;;;;;36.53;16.80;;;1.50;99.90;;;;;;5047595;28;20700;-79
2023/01/20 10:10:44;;;;;;;37.42;18.70;;;1.50;99.90;;;;;;5044278;28;20037;-79
2023/01/20 10:13:24;;;;;;;37.17;17.33;;;1.50;99.90;;;;;;5041915;28;20052;-79
2023/01/20 10:15:53;;;;;;;42.08;18.75;;;1.50;99.90;;;;;;5042722;28;20033;-79
2023/01/20 10:18:22;;;;;;;43.05;17.83;;;1.60;99.90;;;;;;5045506;28;20122;-79
2023/01/20 10:21:07;;;;;;;39.95;19.02;;;1.60;99.90;;;;;;5042151;28;20033;-79
2023/01/20 10:23:50;;;;;;;42.35;18.42;;;1.90;99.90;;;;;;5034098;28;20136;-79
2023/01/20 10:26:25;;;;;;;40.67;17.15;;;1.60;99.90;;;;;;5045556;28;20363;-79
2023/01/20 10:28:58;;;;;;;41.40;17.85;;;1.60;99.90;;;;;;5040693;28;20102;-79
2023/01/20 10:31:27;;;;;;;42.20;18.65;;;1.70;99.90;;;;;;5044436;28;20032;-79
2023/01/20 10:33:59;;;;;;;43.10;19.98;;;1.60;99.90;;;;;;5047945;28;20041;-79
2023/01/20 10:36:28;;;;;;;41.75;18.88;;;1.60;99.90;;;;;;5038492;28;20040;-79
2023/01/20 10:39:00;;;;;;;36.85;19.35;;;1.70;99.90;;;;;;5043136;28;20045;-79
2023/01/20 10:41:38;;;;;;;37.85;18.45;;;1.60;99.90;;;;;;5045569;28;20036;-79
2023/01/20 10:44:13;;;;;;;43.85;19.75;;;1.60;99.90;;;;;;5045330;28;20033;-78
2023/01/20 10:46:58;;;;;;;48.03;19.40;;;1.70;99.90;;;;;;5044214;28;20041;-80
2023/01/20 10:49:41;;;;;;;38.47;18.20;;;1.60;99.90;;;;;;5037795;28;20061;-80
2023/01/20 10:52:22;;;;;;;42.70;19.50;;;1.70;99.90;;;;;;5044101;28;20120;-80
2023/01/20 10:55:08;;;;;;;39.30;17.33;;;1.70;99.90;;;;;;5048133;28;20127;-79
2023/01/20 10:57:34;;;;;;;37.97;16.00;;;1.70;99.90;;;;;;5051339;28;20053;-80
2023/01/20 11:00:06;;;;;;;37.97;17.45;;;1.70;99.90;;;;;;5050699;28;20151;-80
2023/01/20 11:02:34;;;;;;;44.53;17.33;;;1.70;99.90;;;;;;5049101;28;20536;-80
2023/01/20 11:05:26;;;;;;;40.95;18.13;;;1.60;99.90;;;;;;5051111;28;20033;-79
2023/01/20 11:07:54;;;;;;;38.22;18.77;;;1.70;99.90;;;;;;5039039;28;20041;-80
2023/01/20 11:10:24;;;;;;;37.97;16.35;;;1.70;99.90;;;;;;5046009;28;20050;-80
2023/01/20 11:13:00;;;;;;;45.80;18.25;;;1.70;99.90;;;;;;5045729;28;20112;-78
2023/01/20 11:15:32;;;;;;;37.17;17.10;;;1.70;99.90;;;;;;5042075;28;20029;-78
2023/01/20 11:18:13;;;;;;;40.92;17.75;;;2.30;99.90;;;;;;5042184;28;20053;-78
2023/01/20 11:20:50;;;;;;;38.45;18.83;;;1.70;99.90;;;;;;5045736;28;20045;-78
2023/01/20 11:23:26;;;;;;;37.50;16.95;;;1.80;99.90;;;;;;5043917;28;20561;-78
2023/01/20 11:26:00;;;;;;;41.47;17.92;;;1.80;99.90;;;;;;5050235;28;20040;-78
2023/01/20 11:28:34;;;;;;;37.33;17.35;;;1.80;99.90;;;;;;5047052;28;20056;-78
2023/01/20 11:31:01;;;;;;;47.83;20.50;;;1.80;99.90;;;;;;5049605;28;20039;-78
2023/01/20 11:33:27;;;;;;;40.58;17.67;;;1.80;99.90;;;;;;5044140;28;20447;-78
2023/01/20 11:36:01;;;;;;;43.08;20.23;;;2.30;99.90;;;;;;5045662;28;20055;-78
2023/01/20 11:38:30;;;;;;;44.00;18.85;;;1.80;99.90;;;;;;5044343;28;20524;-78
2023/01/20 11:40:56;;;;;;;41.15;19.80;;;1.80;99.90;;;;;;5049187;28;20061;-78
2023/01/20 11:43:34;;;;;;;41.53;18.10;;;1.90;99.90;;;;;;5043906;28;20029;-78
2023/01/20 11:46:15;;;;;;;38.40;16.67;;;1.90;99.90;;;;;;5048677;28;20033;-78
2023/01/20 11:48:41;;;;;;;41.03;17.92;;;1.90;99.90;;;;;;5045643;28;20056;-78
2023/01/20 11:51:27;;;;;;;41.38;18.40;;;1.90;99.90;;;;;;5062634;28;20045;-79
2023/01/20 11:54:14;;;;;;;38.83;17.48;;;1.90;99.90;;;;;;5045011;28;20052;-78
2023/01/20 11:56:45;;;;;;;38.35;17.70;;;1.90;99.90;;;;;;5035408;28;20084;-78
2023/01/20 11:59:19;;;;;;;39.22;16.63;;;2.00;99.90;;;;;;5045272;28;20108;-79
2023/01/20 12:01:56;;;;;;;41.67;17.87;;;1.90;99.90;;;;;;5037445;28;20041;-78
2023/01/20 12:05:07;;;;;;;35.08;16.27;;;1.90;99.90;;;;;;5048244;28;20288;-78
2023/01/20 12:07:39;;;;;;;37.20;16.75;;;1.90;99.90;;;;;;5043454;28;20053;-78
2023/01/20 12:10:21;;;;;;;41.00;17.27;;;1.90;99.90;;;;;;5050543;28;20112;-78
2023/01/20 12:13:04;;;;;;;37.78;15.52;;;1.90;99.90;;;;;;5050346;28;20131;-78
2023/01/20 12:15:36;;;;;;;33.67;15.48;;;1.90;99.90;;;;;;5043022;28;20389;-78
2023/01/20 12:18:09;;;;;;;35.80;16.15;;;1.90;99.90;;;;;;5044174;28;20033;-79
2023/01/20 12:20:48;;;;;;;34.90;16.27;;;1.90;99.90;;;;;;5049429;28;20060;-79
2023/01/20 12:23:21;;;;;;;33.75;15.60;;;2.00;99.90;;;;;;5007715;28;1075958;-78
2023/01/20 12:25:56;;;;;;;36.17;15.48;;;2.00;99.90;;;;;;5043736;28;20045;-78
2023/01/20 12:28:47;;;;;;;41.50;18.08;;;2.00;99.90;;;;;;5045598;28;20048;-78
2023/01/20 12:31:19;;;;;;;36.90;16.83;;;2.00;99.90;;;;;;5046020;28;20132;-78
2023/01/20 12:33:48;;;;;;;36.35;17.15;;;2.00;99.90;;;;;;5048597;28;20567;-78
2023/01/20 12:36:48;;;;;;;36.95;15.95;;;2.00;99.90;;;;;;5050115;28;20036;-78
2023/01/20 12:39:22;;;;;;;35.15;15.88;;;2.00;99.90;;;;;;5051616;28;20048;-78
2023/01/20 12:42:09;;;;;;;38.17;18.63;;;2.00;99.90;;;;;;5045693;28;20049;-79
2023/01/20 12:45:12;;;;;;;37.10;16.40;;;2.70;99.90;;;;;;5045097;28;20072;-78
2023/01/20 12:47:55;;;;;;;36.50;16.17;;;2.00;99.90;;;;;;5043342;28;20037;-78
2023/01/20 12:50:26;;;;;;;36.00;16.50;;;1.90;99.90;;;;;;5042535;28;20044;-77
2023/01/20 12:52:58;;;;;;;35.80;17.15;;;2.20;99.90;;;;;;5046759;28;20487;-80
2023/01/20 12:55:34;;;;;;;38.88;16.98;;;1.90;99.90;;;;;;5049590;28;20037;-80
2023/01/20 12:58:12;;;;;;;36.65;17.02;;;2.00;99.90;;;;;;5046852;28;20045;-80
2023/01/20 13:00:52;;;;;;;35.10;16.98;;;2.00;99.90;;;;;;5047022;28;20049;-80
2023/01/20 13:03:30;;;;;;;45.75;18.67;;;2.00;99.90;;;;;;5038756;28;20094;-80
2023/01/20 13:06:26;;;;;;;38.15;17.92;;;2.00;99.90;;;;;;5041647;28;20128;-80
2023/01/20 13:09:02;;;;;;;38.10;17.33;;;2.00;99.90;;;;;;5044308;28;20109;-80
2023/01/20 13:11:58;;;;;;;38.13;17.48;;;2.20;99.90;;;;;;5046189;28;20104;-79
2023/01/20 13:14:43;;;;;;;40.53;19.10;;;2.00;99.90;;;;;;5012805;28;20053;-79